Time;durP1;ratioP1;P1;durP2;ratioP2;P2;SDS_P1;SDS_P2;PMS_P1;PMS_P2;Temp;Humidity;BMP_temperature;BMP_pressure;BME280_temperature;BME280_humidity;BME280_pressure;Samples;Min_cycle;Max_cycle;Signal;HPM_P1;HPM_P2
2022/03/28 00:02:13;;;;;;;28.50;17.73;;;;;;;1.03;37.28;101193.06;1665255;85;21124;-68
2022/03/28 00:04:40;;;;;;;24.95;15.50;;;;;;;1.05;37.25;101189.86;1659471;85;21033;-69
2022/03/28 00:07:06;;;;;;;24.63;15.83;;;;;;;1.06;37.28;101181.05;1662379;85;21088;-69
2022/03/28 00:09:33;;;;;;;25.25;15.40;;;;;;;1.08;37.33;101185.72;1662240;85;21104;-69
2022/03/28 00:12:01;;;;;;;28.60;16.80;;;;;;;1.02;37.44;101183.04;1654840;85;21076;-68
2022/03/28 00:14:27;;;;;;;32.73;16.75;;;;;;;0.92;37.61;101178.90;1647835;86;21085;-68
2022/03/28 00:16:56;;;;;;;25.05;14.20;;;;;;;0.97;37.64;101183.83;1634361;87;21076;-69
2022/03/28 00:19:24;;;;;;;20.40;12.53;;;;;;;1.01;37.61;101181.83;1641879;86;21124;-69
2022/03/28 00:21:52;;;;;;;17.93;12.10;;;;;;;0.99;37.61;101179.78;1637572;87;21109;-69
2022/03/28 00:24:19;;;;;;;22.37;11.65;;;;;;;1.01;37.65;101179.20;1659091;86;21042;-68
2022/03/28 00:26:46;;;;;;;;;;;;;;;0.98;37.72;101180.27;1660839;86;20976;-68
2022/03/28 00:29:14;;;;;;;17.62;10.23;;;;;;;1.02;37.68;101182.18;1652997;86;20161;-68
2022/03/28 00:31:41;;;;;;;18.00;9.03;;;;;;;0.91;37.94;101179.83;1657264;86;21117;-68
2022/03/28 00:34:08;;;;;;;13.87;8.77;;;;;;;0.89;37.96;101181.73;1657352;86;21081;-68
2022/03/28 00:36:36;;;;;;;11.57;7.93;;;;;;;0.87;38.00;101180.16;1659581;86;21065;-68
2022/03/28 00:39:03;;;;;;;10.80;6.80;;;;;;;0.87;38.14;101175.74;1655360;86;20979;-68
2022/03/28 00:41:29;;;;;;;14.68;7.83;;;;;;;0.84;38.17;101169.37;1659962;86;21514;-69
2022/03/28 00:43:58;;;;;;;10.58;7.75;;;;;;;0.81;38.26;101168.30;1655375;86;21059;-69
2022/03/28 00:46:25;;;;;;;14.20;8.10;;;;;;;0.77;38.30;101162.41;1674622;85;21125;-68
2022/03/28 00:48:54;;;;;;;14.37;8.63;;;;;;;0.78;38.30;101167.18;1688538;85;21002;-68
2022/03/28 00:51:23;;;;;;;14.47;7.97;;;;;;;0.78;38.39;101164.08;1689803;85;21168;-67
2022/03/28 00:53:50;;;;;;;14.80;9.83;;;;;;;0.78;38.39;101161.45;1687439;84;21308;-67
2022/03/28 00:56:18;;;;;;;12.13;7.43;;;;;;;0.79;38.39;101162.28;1667232;85;21591;-68
2022/03/28 00:58:45;;;;;;;17.27;7.77;;;;;;;0.82;38.41;101166.02;1680519;85;21054;-68
2022/03/28 01:01:12;;;;;;;12.53;8.90;;;;;;;0.82;38.63;101156.00;1671976;85;21030;-69
2022/03/28 01:03:39;;;;;;;13.38;8.98;;;;;;;0.83;38.63;101154.59;1681381;85;21024;-68
2022/03/28 01:06:06;;;;;;;17.20;9.10;;;;;;;0.81;38.53;101157.80;1686191;85;21019;-68
2022/03/28 01:08:34;;;;;;;20.03;9.63;;;;;;;0.79;38.55;101157.03;1681807;85;21062;-69
2022/03/28 01:11:06;;;;;;;13.73;10.10;;;;;;;0.80;38.56;101153.96;1689128;85;21266;-69
2022/03/28 01:13:35;;;;;;;17.43;10.03;;;;;;;0.80;38.53;101152.17;1689619;85;21121;-69
2022/03/28 01:16:04;;;;;;;15.03;9.97;;;;;;;0.74;38.51;101138.99;1689551;85;21157;-69
2022/03/28 01:18:32;;;;;;;14.73;9.17;;;;;;;0.82;38.52;101148.13;1688107;85;21144;-69
2022/03/28 01:21:04;;;;;;;19.20;10.07;;;;;;;0.84;38.59;101149.69;1689342;85;21077;-69
2022/03/28 01:23:32;;;;;;;15.93;9.63;;;;;;;0.82;38.62;101160.77;1688010;85;21384;-68
2022/03/28 01:26:00;;;;;;;16.57;10.47;;;;;;;0.82;38.69;101163.40;1686000;85;21526;-68
2022/03/28 01:28:29;;;;;;;18.93;10.53;;;;;;;0.80;38.76;101160.52;1685764;85;21074;-69
2022/03/28 01:30:56;;;;;;;14.93;9.63;;;;;;;0.78;38.59;101154.89;1686342;85;21138;-69
2022/03/28 01:33:23;;;;;;;13.80;9.23;;;;;;;0.77;38.71;101154.55;1682304;85;21014;-68
2022/03/28 01:35:52;;;;;;;17.87;9.57;;;;;;;0.79;38.75;101155.72;1684674;85;21034;-69
2022/03/28 01:38:20;;;;;;;15.90;10.07;;;;;;;0.79;38.79;101155.72;1681465;85;20986;-69
2022/03/28 01:40:50;;;;;;;15.20;9.20;;;;;;;0.78;38.83;101149.64;1687362;85;21152;-68
2022/03/28 01:43:19;;;;;;;17.67;9.63;;;;;;;0.79;38.86;101151.78;1687199;85;21034;-68
2022/03/28 01:45:47;;;;;;;15.97;10.13;;;;;;;0.80;38.90;101153.96;1680680;85;21066;-69
2022/03/28 01:48:14;;;;;;;14.40;8.50;;;;;;;0.78;38.87;101143.08;1682474;85;21046;-69
2022/03/28 01:50:41;;;;;;;12.37;7.77;;;;;;;0.78;38.88;101150.12;1689199;85;21145;-69
2022/03/28 01:53:08;;;;;;;10.58;6.37;;;;;;;0.80;38.82;101148.71;1650987;86;21093;-68
2022/03/28 01:55:34;;;;;;;;;;;;;;;0.74;38.73;101142.09;1680707;85;21022;-67
2022/03/28 01:58:01;;;;;;;12.87;7.53;;;;;;;0.68;38.75;101132.86;1684296;84;20317;-68
2022/03/28 02:00:32;;;;;;;16.33;9.80;;;;;;;0.57;38.90;101130.12;1681360;85;21094;-69
2022/03/28 02:02:59;;;;;;;15.47;11.33;;;;;;;0.54;38.98;101136.40;1668532;85;21053;-68
2022/03/28 02:05:25;;;;;;;;;;;;;;;0.51;39.06;101124.83;1689068;85;21125;-68
2022/03/28 02:07:52;;;;;;;20.50;13.27;;;;;;;0.48;39.21;101130.27;1687580;85;20159;-68
2022/03/28 02:10:21;;;;;;;21.57;13.67;;;;;;;0.39;39.29;101130.88;1688715;84;21679;-68
2022/03/28 02:12:50;;;;;;;20.33;11.17;;;;;;;0.41;39.31;101134.23;1658599;85;21046;-69
2022/03/28 02:15:18;;;;;;;20.60;12.17;;;;;;;0.43;39.38;101132.83;1661761;85;21097;-69
2022/03/28 02:17:45;;;;;;;24.57;12.80;;;;;;;0.41;39.39;101134.23;1661722;85;21208;-67
2022/03/28 02:20:14;;;;;;;26.93;12.63;;;;;;;0.38;39.59;101130.53;1662187;85;21035;-68
2022/03/28 02:22:42;;;;;;;24.53;14.27;;;;;;;0.38;39.60;101130.05;1660782;85;21691;-69
2022/03/28 02:25:12;;;;;;;24.07;14.90;;;;;;;0.38;39.74;101128.73;1662054;85;21091;-69
2022/03/28 02:27:39;;;;;;;24.10;13.53;;;;;;;0.41;39.73;101132.93;1660779;85;21103;-69
2022/03/28 02:30:09;;;;;;;21.65;11.55;;;;;;;0.40;39.81;101139.13;1662026;85;21579;-69
2022/03/28 02:32:35;;;;;;;23.03;12.03;;;;;;;0.37;39.81;101132.77;1657014;85;21185;-69
2022/03/28 02:35:03;;;;;;;;;;;;;;;0.35;39.92;101132.03;1661508;85;21557;-68
2022/03/28 02:37:30;;;;;;;;;;;;;;;0.32;40.08;101129.61;1663897;85;20408;-68
2022/03/28 02:39:57;;;;;;;19.48;10.03;;;;;;;0.26;40.26;101129.55;1654390;85;20189;-68
2022/03/28 02:42:24;;;;;;;17.67;11.20;;;;;;;0.17;40.44;101117.91;1659638;85;21070;-69
2022/03/28 02:44:51;;;;;;;15.95;10.08;;;;;;;0.17;40.47;101119.66;1666267;85;21042;-68
2022/03/28 02:47:19;;;;;;;16.50;10.73;;;;;;;0.15;40.21;101119.80;1656834;85;21050;-68
2022/03/28 02:49:47;;;;;;;17.23;10.57;;;;;;;0.17;40.25;101110.48;1655759;85;21478;-68
2022/03/28 02:52:14;;;;;;;;;;;;;;;0.16;40.21;101112.76;1669902;85;21107;-68
2022/03/28 02:54:40;;;;;;;21.97;10.40;;;;;;;0.14;40.44;101116.78;1674194;84;20225;-69
2022/03/28 02:57:07;;;;;;;18.00;11.75;;;;;;;0.11;40.32;101110.91;1656436;85;21112;-69
2022/03/28 02:59:35;;;;;;;25.10;11.80;;;;;;;0.11;40.38;101112.22;1664352;85;21553;-68
2022/03/28 03:02:02;;;;;;;;;;;;;;;0.16;40.40;101114.07;1662176;85;21070;-68
2022/03/28 03:04:34;;;;;;;16.62;8.65;;;;;;;0.22;40.28;101110.20;1662544;85;20122;-68
2022/03/28 03:07:01;;;;;;;16.93;12.13;;;;;;;0.26;40.11;101101.18;1661854;85;21153;-68
2022/03/28 03:09:29;;;;;;;20.40;12.73;;;;;;;0.27;40.10;101114.20;1661129;85;21064;-68
2022/03/28 03:11:56;;;;;;;22.80;13.08;;;;;;;0.30;40.06;101106.58;1660940;84;21274;-68
2022/03/28 03:14:25;;;;;;;23.30;11.73;;;;;;;0.34;40.06;101101.50;1650223;85;21128;-68
2022/03/28 03:16:52;;;;;;;21.80;10.67;;;;;;;0.41;39.85;101109.32;1650582;85;21558;-69
2022/03/28 03:19:21;;;;;;;18.60;11.57;;;;;;;0.43;39.75;101096.94;1661771;85;21161;-68
2022/03/28 03:21:48;;;;;;;21.77;11.83;;;;;;;0.49;39.81;101095.69;1670600;85;21533;-69
2022/03/28 03:24:15;;;;;;;;;;;;;;;0.52;39.82;101084.52;1660922;85;21624;-70
2022/03/28 03:26:42;;;;;;;17.63;9.63;;;;;;;0.61;39.88;101085.68;1661559;85;20506;-68
2022/03/28 03:29:08;;;;;;;22.43;11.67;;;;;;;0.60;39.86;101084.47;1665190;85;21165;-68
2022/03/28 03:31:35;;;;;;;;;;;;;;;0.62;39.78;101080.78;1662480;85;21053;-69
2022/03/28 03:34:02;;;;;;;17.93;9.97;;;;;;;0.63;39.81;101084.27;1625346;86;20203;-69
2022/03/28 03:36:30;;;;;;;21.63;9.40;;;;;;;0.61;40.00;101069.94;1644012;86;21606;-68
2022/03/28 03:38:57;;;;;;;13.93;10.00;;;;;;;0.62;40.31;101076.02;1623257;86;21566;-68
2022/03/28 03:41:23;;;;;;;;;;;;;;;0.67;40.41;101081.80;1666565;85;21094;-69
2022/03/28 03:43:50;;;;;;;18.47;10.27;;;;;;;0.72;40.21;101087.09;1649770;86;20133;-68
2022/03/28 03:46:18;;;;;;;12.33;8.03;;;;;;;0.69;40.19;101077.27;1658861;85;21098;-68
2022/03/28 03:48:44;;;;;;;16.77;9.35;;;;;;;0.74;40.16;101076.02;1659032;85;21002;-69
2022/03/28 03:51:11;;;;;;;16.32;9.20;;;;;;;0.71;40.17;101063.09;1665440;85;21080;-69
2022/03/28 03:53:38;;;;;;;20.97;9.53;;;;;;;0.82;40.24;101068.91;1655383;85;21109;-68
2022/03/28 03:56:05;;;;;;;15.90;9.07;;;;;;;0.87;40.27;101066.81;1657676;85;21132;-68
2022/03/28 03:58:31;;;;;;;18.30;9.85;;;;;;;0.88;40.33;101074.20;1653361;85;21569;-69
2022/03/28 04:00:58;;;;;;;;;;;;;;;0.91;40.33;101070.89;1663309;85;21490;-68
2022/03/28 04:03:24;;;;;;;22.43;9.07;;;;;;;0.94;40.30;101072.45;1661377;86;20156;-68
2022/03/28 04:05:52;;;;;;;13.58;8.50;;;;;;;0.95;40.46;101071.52;1655634;85;21398;-68
2022/03/28 04:08:20;;;;;;;14.73;8.90;;;;;;;1.01;40.34;101070.25;1660612;86;21093;-68
2022/03/28 04:10:47;;;;;;;15.40;8.33;;;;;;;1.09;40.30;101070.53;1661975;85;21502;-68
2022/03/28 04:13:14;;;;;;;16.13;7.97;;;;;;;1.13;40.16;101080.73;1655218;85;21182;-68
2022/03/28 04:15:41;;;;;;;18.00;8.87;;;;;;;1.18;40.10;101081.70;1656849;85;22189;-67
2022/03/28 04:18:09;;;;;;;19.05;10.32;;;;;;;1.20;40.29;101075.86;1660192;85;21088;-68
2022/03/28 04:20:37;;;;;;;14.57;7.60;;;;;;;1.26;40.30;101070.64;1657637;85;21093;-68
2022/03/28 04:23:03;;;;;;;;;;;;;;;1.29;40.14;101071.27;1659276;85;21169;-68
2022/03/28 04:25:30;;;;;;;13.10;7.37;;;;;;;1.35;40.37;101060.31;1676542;84;20194;-69
2022/03/28 04:27:58;;;;;;;16.00;7.13;;;;;;;1.30;40.30;101052.40;1660777;85;21681;-68
2022/03/28 04:30:26;;;;;;;14.63;6.93;;;;;;;1.33;40.56;101052.19;1668959;85;21513;-67
2022/03/28 04:32:52;;;;;;;;;;;;;;;1.32;40.38;101050.05;1667010;85;21037;-69
2022/03/28 04:35:20;;;;;;;18.03;6.57;;;;;;;1.32;40.44;101053.16;1646049;86;20127;-69
2022/03/28 04:37:46;;;;;;;;;;;;;;;1.27;40.89;101057.41;1646645;86;21058;-68
2022/03/28 04:40:17;;;;;;;9.13;6.43;;;;;;;1.30;40.63;101061.14;1650903;86;20144;-69
2022/03/28 04:42:45;;;;;;;15.57;8.30;;;;;;;1.27;40.67;101050.02;1642734;86;21143;-68
2022/03/28 04:45:13;;;;;;;13.17;8.43;;;;;;;1.30;40.83;101044.52;1658129;86;21525;-68
2022/03/28 04:47:40;;;;;;;11.37;6.53;;;;;;;1.31;40.85;101047.05;1648128;86;21177;-69
2022/03/28 04:50:09;;;;;;;11.33;6.47;;;;;;;1.36;41.11;101040.98;1648989;86;21173;-70
2022/03/28 04:52:36;;;;;;;13.33;7.63;;;;;;;1.38;41.04;101015.92;1637468;86;21688;-69
2022/03/28 04:55:05;;;;;;;12.17;7.60;;;;;;;1.36;41.07;101000.27;1653593;86;21408;-67
2022/03/28 04:57:33;;;;;;;14.17;8.20;;;;;;;1.36;41.20;101016.52;1653822;86;21661;-69
2022/03/28 05:00:03;;;;;;;16.13;8.40;;;;;;;1.36;41.14;101024.39;1653597;86;21585;-68
2022/03/28 05:02:31;;;;;;;14.00;8.47;;;;;;;1.39;41.17;101030.72;1652516;86;21843;-69
2022/03/28 05:04:58;;;;;;;14.17;8.07;;;;;;;1.41;41.24;101019.63;1645180;86;21119;-68
2022/03/28 05:07:27;;;;;;;15.60;9.73;;;;;;;1.48;41.38;101022.17;1657469;86;21451;-69
2022/03/28 05:09:54;;;;;;;23.13;10.87;;;;;;;1.51;41.21;101022.44;1650705;86;21639;-69
2022/03/28 05:12:21;;;;;;;;;;;;;;;1.53;41.03;101016.59;1650570;85;21064;-68
2022/03/28 05:14:49;;;;;;;19.50;11.43;;;;;;;1.51;41.02;101016.70;1635822;86;20462;-69
2022/03/28 05:17:30;;;;;;;25.80;13.13;;;;;;;1.52;41.13;101010.96;1654500;85;21637;-69
2022/03/28 05:19:59;;;;;;;24.23;12.93;;;;;;;1.51;41.30;101014.07;1652961;86;21026;-69
2022/03/28 05:22:25;;;;;;;24.50;14.37;;;;;;;1.57;41.40;101016.72;1655435;85;21045;-69
2022/03/28 05:24:55;;;;;;;25.53;14.53;;;;;;;1.62;41.22;101019.00;1660713;86;21160;-68
2022/03/28 05:27:22;;;;;;;24.40;14.13;;;;;;;1.42;41.02;100973.20;1660557;86;21073;-68
2022/03/28 05:29:49;;;;;;;24.67;14.63;;;;;;;1.69;40.95;101005.77;1660210;86;21117;-69
2022/03/28 05:32:16;;;;;;;26.47;14.03;;;;;;;1.73;40.66;101006.76;1659922;86;21525;-69
2022/03/28 05:34:43;;;;;;;20.67;12.87;;;;;;;1.77;40.63;101013.91;1678156;84;21387;-68
2022/03/28 05:37:15;;;;;;;26.63;13.70;;;;;;;1.81;40.54;101017.15;1686997;84;21090;-68
2022/03/28 05:39:44;;;;;;;20.73;12.50;;;;;;;1.84;40.65;101014.30;1685900;84;21062;-69
2022/03/28 05:42:11;;;;;;;17.07;12.00;;;;;;;1.93;40.50;101011.81;1687579;84;21107;-70
2022/03/28 05:44:45;;;;;;;19.83;10.43;;;;;;;1.98;40.38;101008.86;1682542;84;21071;-68
2022/03/28 05:47:10;;;;;;;17.50;9.40;;;;;;;2.05;40.42;100999.52;1686928;84;21648;-69
2022/03/28 05:49:37;;;;;;;14.77;7.63;;;;;;;2.09;40.11;100990.47;1680345;84;21643;-70
2022/03/28 05:52:05;;;;;;;12.23;7.97;;;;;;;2.10;39.75;100978.98;1681495;84;21026;-68
2022/03/28 05:54:33;;;;;;;9.60;6.87;;;;;;;2.07;39.88;100966.53;1676200;84;21084;-69
2022/03/28 05:57:02;;;;;;;11.13;5.77;;;;;;;2.13;39.59;100962.97;1686524;84;20996;-69
2022/03/28 05:59:29;;;;;;;10.00;5.43;;;;;;;2.13;39.63;100957.71;1685033;85;21007;-69
2022/03/28 06:01:56;;;;;;;14.13;4.50;;;;;;;2.16;39.37;100955.31;1680845;84;21073;-68
2022/03/28 06:04:23;;;;;;;;;;;;;;;2.16;39.55;100964.52;1689842;85;21022;-69
2022/03/28 06:06:49;;;;;;;6.30;3.03;;;;;;;2.21;39.34;100954.97;1684372;84;20104;-68
2022/03/28 06:09:16;;;;;;;7.55;3.52;;;;;;;2.14;39.68;100952.80;1686484;84;21042;-68
2022/03/28 06:11:46;;;;;;;6.20;2.97;;;;;;;2.20;39.37;100945.39;1686423;84;21597;-69
2022/03/28 06:14:12;;;;;;;10.93;3.30;;;;;;;2.23;39.50;100939.91;1685807;85;21014;-69
2022/03/28 06:16:38;;;;;;;10.65;3.37;;;;;;;2.33;39.30;100940.36;1687450;85;21051;-69
2022/03/28 06:19:05;;;;;;;7.15;3.30;;;;;;;2.41;39.18;100938.47;1686655;84;21018;-70
2022/03/28 06:21:33;;;;;;;6.63;3.13;;;;;;;2.51;39.10;100932.83;1683545;84;21387;-70
2022/03/28 06:24:00;;;;;;;11.07;3.23;;;;;;;2.59;38.64;100937.48;1671563;84;21030;-69
2022/03/28 06:26:28;;;;;;;8.30;3.47;;;;;;;2.70;38.53;100938.78;1686169;84;21681;-69
2022/03/28 06:28:55;;;;;;;7.07;3.80;;;;;;;2.76;38.35;100930.88;1681650;84;21122;-68
2022/03/28 06:31:22;;;;;;;9.10;3.33;;;;;;;2.84;38.34;100934.20;1685328;84;21580;-69
2022/03/28 06:33:51;;;;;;;8.43;3.17;;;;;;;2.93;38.13;100929.02;1685537;84;21549;-69
2022/03/28 06:36:19;;;;;;;4.93;3.00;;;;;;;3.02;38.02;100923.99;1686924;84;21585;-68
2022/03/28 06:38:47;;;;;;;5.17;3.03;;;;;;;3.09;37.66;100911.52;1686592;85;21148;-69
2022/03/28 06:41:14;;;;;;;7.73;2.90;;;;;;;3.18;37.75;100908.58;1686822;84;21038;-69
2022/03/28 06:43:42;;;;;;;4.43;2.43;;;;;;;3.24;37.25;100899.34;1687107;84;21093;-68
2022/03/28 06:46:10;;;;;;;9.30;2.10;;;;;;;3.30;37.05;100892.27;1686798;84;21011;-68
2022/03/28 06:50:09;;;;;;;3.13;1.93;;;;;;;3.37;36.72;100878.08;1799285;78;22793;-69
2022/03/28 06:52:37;;;;;;;3.40;1.63;;;;;;;3.38;36.57;100880.59;1763720;80;21117;-69
2022/03/28 06:55:05;;;;;;;3.33;1.70;;;;;;;3.40;36.27;100876.52;1776671;79;21517;-67
2022/03/28 06:57:33;;;;;;;2.90;0.90;;;;;;;3.48;36.24;100871.42;1738642;81;21307;-68
2022/03/28 07:00:00;;;;;;;3.13;1.73;;;;;;;3.52;35.96;100878.11;1726487;81;21089;-69
2022/03/28 07:02:29;;;;;;;8.23;1.63;;;;;;;3.55;36.03;100883.12;1722467;80;21607;-69
2022/03/28 07:04:56;;;;;;;3.93;1.77;;;;;;;3.62;35.59;100885.61;1733361;81;21017;-68
2022/03/28 07:07:24;;;;;;;4.97;1.50;;;;;;;3.67;35.56;100879.47;1730710;81;21068;-69
2022/03/28 07:09:52;;;;;;;3.67;0.93;;;;;;;3.65;35.40;100866.88;1728109;81;21038;-69
2022/03/28 07:12:22;;;;;;;3.77;1.50;;;;;;;3.63;35.25;100858.75;1683018;83;21055;-68
2022/03/28 07:14:49;;;;;;;2.73;1.40;;;;;;;3.60;35.23;100864.27;1675407;83;21101;-69
2022/03/28 07:17:19;;;;;;;4.43;1.50;;;;;;;3.61;35.14;100852.78;1674154;83;21740;-70
2022/03/28 07:19:48;;;;;;;2.40;1.47;;;;;;;3.62;34.95;100859.73;1678646;84;21475;-70
2022/03/28 07:22:16;;;;;;;3.27;1.17;;;;;;;3.68;34.97;100848.17;1678434;83;21193;-68
2022/03/28 07:24:44;;;;;;;0.70;0.43;;;;;;;3.80;34.90;100838.86;1704644;83;21027;-68
2022/03/28 07:27:12;;;;;;;1.93;1.00;;;;;;;3.93;34.55;100828.09;1694047;83;21708;-67
2022/03/28 07:29:43;;;;;;;3.27;0.77;;;;;;;4.03;34.08;100823.20;1700309;83;21079;-67
2022/03/28 07:32:09;;;;;;;4.30;0.90;;;;;;;4.11;33.76;100817.26;1686801;83;21103;-67
2022/03/28 07:34:38;;;;;;;8.37;0.87;;;;;;;4.19;33.44;100807.34;1679598;83;21143;-67
2022/03/28 07:37:06;;;;;;;8.13;1.47;;;;;;;4.23;33.29;100808.24;1671869;84;21065;-67
2022/03/28 07:39:34;;;;;;;9.53;1.30;;;;;;;4.31;33.19;100802.28;1666242;84;21403;-67
2022/03/28 07:42:03;;;;;;;9.47;0.80;;;;;;;4.39;32.84;100791.04;1667167;84;21037;-67
2022/03/28 07:44:31;;;;;;;2.87;0.90;;;;;;;4.45;32.58;100790.52;1672772;84;21033;-68
2022/03/28 07:47:00;;;;;;;1.90;0.93;;;;;;;4.51;32.77;100781.21;1667868;84;21001;-67
2022/03/28 07:49:30;;;;;;;3.53;0.63;;;;;;;4.59;32.42;100776.89;1650899;85;21118;-67
2022/03/28 07:51:59;;;;;;;3.93;0.90;;;;;;;4.65;32.19;100761.84;1672133;84;21591;-67
2022/03/28 07:54:27;;;;;;;3.97;0.83;;;;;;;4.71;32.02;100764.87;1662042;84;21026;-67
2022/03/28 07:56:54;;;;;;;4.83;0.83;;;;;;;4.72;32.17;100747.56;1660476;85;21053;-67
2022/03/28 07:59:23;;;;;;;3.70;0.87;;;;;;;4.77;32.07;100747.99;1650839;85;21070;-67
2022/03/28 08:01:51;;;;;;;2.47;0.90;;;;;;;4.83;32.25;100732.06;1678938;82;21029;-68
2022/03/28 08:04:19;;;;;;;3.63;1.20;;;;;;;4.88;32.22;100728.03;1692126;83;21106;-68
2022/03/28 08:06:48;;;;;;;3.77;0.73;;;;;;;4.96;32.25;100720.71;1650967;85;21166;-67
2022/03/28 08:09:17;;;;;;;2.93;1.00;;;;;;;5.10;32.28;100732.63;1631959;86;21154;-68
2022/03/28 08:11:45;;;;;;;7.27;1.07;;;;;;;5.23;32.09;100726.53;1686371;83;21143;-69
2022/03/28 08:14:13;;;;;;;3.70;1.23;;;;;;;5.37;32.02;100717.33;1653250;85;21027;-67
2022/03/28 08:16:45;;;;;;;2.90;0.80;;;;;;;5.52;31.63;100712.40;1634792;86;21162;-68
2022/03/28 08:19:12;;;;;;;3.47;1.27;;;;;;;5.64;31.45;100700.63;1615646;86;21205;-67
2022/03/28 08:21:44;;;;;;;3.07;0.90;;;;;;;5.71;31.10;100707.97;1617449;86;21630;-68
2022/03/28 08:24:12;;;;;;;2.93;0.80;;;;;;;5.80;31.25;100693.39;1672642;82;21512;-67
2022/03/28 08:26:39;;;;;;;3.60;0.80;;;;;;;5.91;31.30;100683.06;1660888;83;21030;-66
2022/03/28 08:29:08;;;;;;;2.77;0.87;;;;;;;6.11;31.02;100680.33;1677367;83;22216;-71
2022/03/28 08:31:36;;;;;;;5.80;0.67;;;;;;;6.32;30.51;100675.55;1675493;83;21117;-68
2022/03/28 08:34:03;;;;;;;3.03;0.50;;;;;;;6.49;30.08;100655.84;1676706;83;21849;-67
2022/03/28 08:36:31;;;;;;;1.10;0.57;;;;;;;6.60;30.05;100671.48;1667767;83;21034;-68
2022/03/28 08:38:59;;;;;;;4.73;0.70;;;;;;;6.76;30.07;100664.98;1674501;83;21017;-66
2022/03/28 08:41:28;;;;;;;1.73;0.43;;;;;;;6.95;29.97;100649.36;1667907;83;21168;-68
2022/03/28 08:43:56;;;;;;;4.70;0.60;;;;;;;7.15;29.82;100649.95;1647425;85;21296;-67
2022/03/28 08:46:27;;;;;;;1.40;0.37;;;;;;;7.36;29.65;100642.91;1660766;83;21181;-68
2022/03/28 08:48:58;;;;;;;5.63;0.60;;;;;;;7.60;29.52;100627.58;1670596;84;21425;-69
2022/03/28 08:51:30;;;;;;;7.83;1.10;;;;;;;7.85;29.28;100628.13;1672617;84;21327;-67
2022/03/28 08:54:00;;;;;;;1.70;0.40;;;;;;;8.04;28.91;100617.20;1635055;85;21038;-67
2022/03/28 08:56:27;;;;;;;4.37;0.70;;;;;;;8.19;28.82;100614.24;1682405;83;21085;-69
2022/03/28 08:58:55;;;;;;;4.37;0.40;;;;;;;8.37;28.72;100609.25;1687089;83;21523;-69
2022/03/28 09:01:24;;;;;;;2.93;0.73;;;;;;;8.54;28.66;100595.48;1690614;83;21549;-69
2022/03/28 09:03:52;;;;;;;4.93;1.50;;;;;;;8.72;28.50;100589.95;1681674;83;21037;-71
2022/03/28 09:06:42;;;;;;;2.80;0.87;;;;;;;8.88;28.50;100599.21;1675293;83;21049;-68
2022/03/28 09:09:31;;;;;;;6.40;1.10;;;;;;;9.07;28.55;100586.52;1682430;83;21536;-69
2022/03/28 09:12:01;;;;;;;;;;;;;;;9.23;28.25;100572.31;1679618;83;22149;-71
2022/03/28 09:14:35;;;;;;;1.27;0.70;;;;;;;9.32;28.11;100586.76;1672904;83;20251;-68
2022/03/28 09:17:14;;;;;;;3.60;0.83;;;;;;;9.33;28.56;100583.59;1669437;83;22116;-68
2022/03/28 09:19:59;;;;;;;7.93;0.50;;;;;;;9.45;28.56;100574.70;1684431;83;21131;-69
2022/03/28 09:22:36;;;;;;;4.33;1.20;;;;;;;9.56;28.36;100570.31;1672144;83;21041;-69
2022/03/28 09:25:09;;;;;;;4.20;0.73;;;;;;;9.63;28.17;100561.95;1678270;83;21151;-67
2022/03/28 09:27:41;;;;;;;4.80;1.20;;;;;;;9.65;28.21;100541.83;1688753;83;21078;-69
2022/03/28 09:30:13;;;;;;;2.23;0.87;;;;;;;9.67;28.10;100547.80;1678345;83;21093;-69
2022/03/28 09:32:48;;;;;;;8.30;1.13;;;;;;;9.70;28.28;100536.77;1644541;85;21826;-67
2022/03/28 09:35:22;;;;;;;2.63;1.10;;;;;;;9.74;28.21;100525.61;1660269;84;21542;-68
2022/03/28 09:38:04;;;;;;;7.20;1.47;;;;;;;9.83;28.23;100529.05;1626203;86;21263;-68
2022/03/28 09:40:43;;;;;;;7.60;1.53;;;;;;;9.91;28.18;100518.32;1615057;87;21087;-67
2022/03/28 09:43:23;;;;;;;2.83;1.40;;;;;;;9.97;28.20;100502.64;1623085;86;21137;-68
2022/03/28 09:45:57;;;;;;;6.53;2.00;;;;;;;10.04;28.06;100499.07;1644721;85;21028;-70
2022/03/28 09:48:27;;;;;;;4.37;2.10;;;;;;;10.10;27.89;100482.88;1604407;87;21031;-69
2022/03/28 09:51:05;;;;;;;6.80;1.73;;;;;;;10.12;27.79;100486.18;1650783;85;21520;-71
2022/03/28 09:53:38;;;;;;;7.90;1.77;;;;;;;10.13;28.07;100478.49;1604760;87;21131;-69
2022/03/28 09:56:11;;;;;;;5.40;1.53;;;;;;;10.17;27.86;100457.65;1649167;84;21534;-70
2022/03/28 09:58:49;;;;;;;4.77;1.60;;;;;;;10.15;27.84;100461.82;1669618;84;21105;-70
2022/03/28 10:01:26;;;;;;;5.37;1.60;;;;;;;10.15;28.06;100455.16;1677861;83;21069;-69
2022/03/28 10:04:05;;;;;;;3.63;1.30;;;;;;;10.22;28.33;100445.44;1684160;83;21094;-68
2022/03/28 10:06:33;;;;;;;8.43;1.93;;;;;;;10.31;28.24;100451.03;1683918;83;22047;-69
2022/03/28 10:09:06;;;;;;;8.57;1.40;;;;;;;10.43;28.15;100446.58;1638581;85;21133;-69
2022/03/28 10:11:36;;;;;;;5.30;1.13;;;;;;;10.53;28.13;100443.13;1693655;83;21053;-69
2022/03/28 10:14:04;;;;;;;7.43;1.10;;;;;;;10.63;28.05;100430.84;1690986;83;21075;-69
2022/03/28 10:16:34;;;;;;;9.20;0.97;;;;;;;10.73;28.00;100427.88;1689662;83;21676;-70
2022/03/28 10:19:03;;;;;;;5.40;1.20;;;;;;;10.75;27.64;100420.52;1678778;83;21573;-68
2022/03/28 10:21:34;;;;;;;5.63;2.10;;;;;;;10.89;27.51;100417.00;1680778;83;21520;-70
2022/03/28 10:24:16;;;;;;;7.27;3.40;;;;;;;10.98;27.56;100414.55;1688866;83;21100;-69
2022/03/28 10:26:49;;;;;;;4.37;2.67;;;;;;;11.08;27.61;100395.55;1672361;83;21133;-69
2022/03/28 10:29:19;;;;;;;10.43;3.67;;;;;;;11.17;27.20;100394.91;1617796;85;21021;-68
2022/03/28 10:31:58;;;;;;;6.47;2.23;;;;;;;11.25;27.48;100390.27;1678677;83;21005;-69
2022/03/28 10:34:53;;;;;;;4.60;1.50;;;;;;;11.32;27.28;100372.16;1690353;83;21164;-69
2022/03/28 10:37:44;;;;;;;10.77;2.17;;;;;;;11.34;27.19;100372.30;1677844;82;21180;-69
2022/03/28 10:40:26;;;;;;;7.43;2.30;;;;;;;11.36;27.32;100364.92;1685239;83;21118;-70
2022/03/28 10:43:13;;;;;;;10.00;2.60;;;;;;;11.42;27.32;100356.13;1674332;83;21083;-69
2022/03/28 10:45:49;;;;;;;14.70;2.27;;;;;;;11.49;27.30;100345.00;1692586;83;21121;-69
2022/03/28 10:48:39;;;;;;;8.27;2.03;;;;;;;11.49;27.08;100332.17;1697000;83;21027;-68
2022/03/28 10:51:19;;;;;;;7.57;2.43;;;;;;;11.50;27.11;100335.14;1680573;83;21058;-69
2022/03/28 10:54:05;;;;;;;7.80;1.70;;;;;;;11.44;27.09;100328.73;1687308;83;21501;-68
2022/03/28 10:56:39;;;;;;;10.82;1.37;;;;;;;11.46;27.24;100324.55;1693969;82;21015;-69
2022/03/28 10:59:15;;;;;;;5.00;1.63;;;;;;;11.49;27.38;100308.97;1690890;83;21145;-69
2022/03/28 11:01:46;;;;;;;14.00;2.77;;;;;;;11.53;27.07;100301.40;1690713;83;21109;-69
2022/03/28 11:04:24;;;;;;;10.97;1.70;;;;;;;11.58;27.22;100307.47;1674534;84;21006;-69
2022/03/28 11:07:07;;;;;;;6.37;2.03;;;;;;;11.61;27.48;100298.56;1693031;83;21529;-68
2022/03/28 11:09:43;;;;;;;11.23;2.30;;;;;;;11.72;27.77;100295.87;1699087;83;21668;-68
2022/03/28 11:12:14;;;;;;;9.07;1.53;;;;;;;11.83;27.53;100285.97;1685734;83;21089;-70
2022/03/28 11:14:53;;;;;;;13.13;2.30;;;;;;;11.92;27.25;100263.93;1686383;83;21093;-69
2022/03/28 11:17:31;;;;;;;9.90;1.80;;;;;;;11.91;27.09;100254.80;1691674;83;21077;-69
2022/03/28 11:20:13;;;;;;;13.37;3.00;;;;;;;11.98;27.29;100255.14;1680697;83;21088;-69
2022/03/28 11:22:48;;;;;;;3.77;2.27;;;;;;;12.04;27.48;100264.20;1692807;82;21038;-68
2022/03/28 11:25:54;;;;;;;12.50;2.67;;;;;;;12.13;27.34;100256.33;1664915;84;21407;-69
2022/03/28 11:28:27;;;;;;;9.77;2.60;;;;;;;12.20;27.05;100251.80;1658653;84;21513;-68
2022/03/28 11:31:08;;;;;;;5.10;2.17;;;;;;;12.26;26.92;100237.66;1657128;85;21161;-69
2022/03/28 11:33:46;;;;;;;12.05;2.50;;;;;;;12.30;27.19;100221.20;1655917;84;21510;-69
2022/03/28 11:36:20;;;;;;;9.25;2.35;;;;;;;12.35;27.15;100213.41;1691162;82;21093;-70
2022/03/28 11:38:55;;;;;;;5.07;1.93;;;;;;;12.38;27.06;100213.02;1695463;82;21047;-70
2022/03/28 11:41:25;;;;;;;10.30;3.23;;;;;;;12.38;26.92;100205.00;1691397;82;21133;-69
2022/03/28 11:43:56;;;;;;;9.77;2.70;;;;;;;12.35;26.87;100196.85;1692424;82;21590;-68